sensor_id;sensor_type;location;lat;lon;timestamp;P1;durP1;ratioP1;P2;durP2;ratioP2
26277;SDS011;14000;52.056;8.510;2022-12-22T00:01:28;17.27;;;11.13;;
26277;SDS011;14000;52.056;8.510;2022-12-22T00:04:12;14.27;;;9.50;;
26277;SDS011;14000;52.056;8.510;2022-12-22T00:06:56;19.17;;;10.37;;
26277;SDS011;14000;52.056;8.510;2022-12-22T00:09:39;19.77;;;13.13;;
26277;SDS011;14000;52.056;8.510;2022-12-22T00:12:24;18.47;;;10.63;;
26277;SDS011;14000;52.056;8.510;2022-12-22T00:15:13;14.70;;;9.23;;
26277;SDS011;14000;52.056;8.510;2022-12-22T00:17:59;16.40;;;9.73;;
26277;SDS011;14000;52.056;8.510;2022-12-22T00:20:44;19.13;;;11.33;;
26277;SDS011;14000;52.056;8.510;2022-12-22T00:23:28;14.53;;;10.00;;
26277;SDS011;14000;52.056;8.510;2022-12-22T00:26:12;17.93;;;11.27;;
26277;SDS011;14000;52.056;8.510;2022-12-22T00:28:57;23.80;;;15.53;;
26277;SDS011;14000;52.056;8.510;2022-12-22T00:31:41;15.50;;;9.80;;
26277;SDS011;14000;52.056;8.510;2022-12-22T00:34:26;15.80;;;9.87;;
26277;SDS011;14000;52.056;8.510;2022-12-22T00:37:11;20.80;;;10.90;;
26277;SDS011;14000;52.056;8.510;2022-12-22T00:39:56;15.73;;;10.00;;
26277;SDS011;14000;52.056;8.510;2022-12-22T00:42:41;18.93;;;12.70;;
26277;SDS011;14000;52.056;8.510;2022-12-22T00:45:25;17.70;;;11.47;;
26277;SDS011;14000;52.056;8.510;2022-12-22T00:48:23;18.03;;;12.27;;
26277;SDS011;14000;52.056;8.510;2022-12-22T00:51:08;17.00;;;11.70;;
26277;SDS011;14000;52.056;8.510;2022-12-22T00:53:53;21.07;;;13.83;;
26277;SDS011;14000;52.056;8.510;2022-12-22T00:56:38;19.57;;;13.43;;
26277;SDS011;14000;52.056;8.510;2022-12-22T00:59:23;15.90;;;10.53;;
26277;SDS011;14000;52.056;8.510;2022-12-22T01:02:09;16.43;;;10.03;;
26277;SDS011;14000;52.056;8.510;2022-12-22T01:04:53;14.27;;;9.40;;
26277;SDS011;14000;52.056;8.510;2022-12-22T01:07:37;14.87;;;9.27;;
26277;SDS011;14000;52.056;8.510;2022-12-22T01:10:21;11.53;;;7.40;;
26277;SDS011;14000;52.056;8.510;2022-12-22T01:13:11;12.77;;;8.00;;
26277;SDS011;14000;52.056;8.510;2022-12-22T01:15:56;16.40;;;10.93;;
26277;SDS011;14000;52.056;8.510;2022-12-22T01:18:40;18.47;;;12.70;;
26277;SDS011;14000;52.056;8.510;2022-12-22T01:21:24;15.67;;;10.13;;
26277;SDS011;14000;52.056;8.510;2022-12-22T01:24:12;12.90;;;8.30;;
26277;SDS011;14000;52.056;8.510;2022-12-22T01:26:57;14.37;;;7.63;;
26277;SDS011;14000;52.056;8.510;2022-12-22T01:29:42;13.10;;;8.40;;
26277;SDS011;14000;52.056;8.510;2022-12-22T01:32:26;15.37;;;10.10;;
26277;SDS011;14000;52.056;8.510;2022-12-22T01:35:21;12.20;;;7.60;;
26277;SDS011;14000;52.056;8.510;2022-12-22T01:38:08;13.63;;;8.00;;
26277;SDS011;14000;52.056;8.510;2022-12-22T01:40:52;13.90;;;8.70;;
26277;SDS011;14000;52.056;8.510;2022-12-22T01:43:39;14.90;;;9.87;;
26277;SDS011;14000;52.056;8.510;2022-12-22T01:46:27;14.97;;;9.53;;
26277;SDS011;14000;52.056;8.510;2022-12-22T01:49:35;17.97;;;12.17;;
26277;SDS011;14000;52.056;8.510;2022-12-22T01:52:24;16.17;;;10.53;;
26277;SDS011;14000;52.056;8.510;2022-12-22T01:55:14;13.80;;;9.13;;
26277;SDS011;14000;52.056;8.510;2022-12-22T01:58:02;12.43;;;7.70;;
26277;SDS011;14000;52.056;8.510;2022-12-22T02:00:49;12.90;;;8.47;;
26277;SDS011;14000;52.056;8.510;2022-12-22T02:03:33;16.50;;;9.73;;
26277;SDS011;14000;52.056;8.510;2022-12-22T02:06:21;14.20;;;8.10;;
26277;SDS011;14000;52.056;8.510;2022-12-22T02:13:01;14.23;;;9.13;;
26277;SDS011;14000;52.056;8.510;2022-12-22T02:16:01;14.00;;;8.50;;
26277;SDS011;14000;52.056;8.510;2022-12-22T02:18:55;15.40;;;9.97;;
26277;SDS011;14000;52.056;8.510;2022-12-22T02:21:55;14.43;;;8.53;;
26277;SDS011;14000;52.056;8.510;2022-12-22T02:25:02;13.60;;;7.97;;
26277;SDS011;14000;52.056;8.510;2022-12-22T02:27:53;22.03;;;10.73;;
26277;SDS011;14000;52.056;8.510;2022-12-22T02:30:39;12.50;;;6.90;;
26277;SDS011;14000;52.056;8.510;2022-12-22T02:33:24;15.90;;;9.50;;
26277;SDS011;14000;52.056;8.510;2022-12-22T02:48:10;12.27;;;7.87;;
26277;SDS011;14000;52.056;8.510;2022-12-22T02:51:03;13.60;;;7.40;;
26277;SDS011;14000;52.056;8.510;2022-12-22T02:53:53;13.83;;;8.70;;
26277;SDS011;14000;52.056;8.510;2022-12-22T02:56:39;14.60;;;9.67;;
26277;SDS011;14000;52.056;8.510;2022-12-22T02:59:24;27.80;;;16.67;;
26277;SDS011;14000;52.056;8.510;2022-12-22T03:02:08;14.37;;;8.57;;
26277;SDS011;14000;52.056;8.510;2022-12-22T03:04:52;19.83;;;12.57;;
26277;SDS011;14000;52.056;8.510;2022-12-22T03:07:36;18.20;;;10.17;;
26277;SDS011;14000;52.056;8.510;2022-12-22T03:10:20;13.83;;;8.97;;
26277;SDS011;14000;52.056;8.510;2022-12-22T03:13:05;14.10;;;9.43;;
26277;SDS011;14000;52.056;8.510;2022-12-22T03:15:48;22.73;;;14.07;;
26277;SDS011;14000;52.056;8.510;2022-12-22T03:18:33;17.17;;;11.03;;
26277;SDS011;14000;52.056;8.510;2022-12-22T03:21:17;15.97;;;9.40;;
26277;SDS011;14000;52.056;8.510;2022-12-22T03:24:01;13.00;;;7.97;;
26277;SDS011;14000;52.056;8.510;2022-12-22T03:26:45;13.23;;;8.30;;
26277;SDS011;14000;52.056;8.510;2022-12-22T03:29:11;15.53;;;9.67;;
26277;SDS011;14000;52.056;8.510;2022-12-22T03:31:36;18.73;;;11.13;;
26277;SDS011;14000;52.056;8.510;2022-12-22T03:34:02;19.70;;;10.07;;
26277;SDS011;14000;52.056;8.510;2022-12-22T03:36:27;13.40;;;7.77;;
26277;SDS011;14000;52.056;8.510;2022-12-22T03:38:53;19.00;;;11.17;;
26277;SDS011;14000;52.056;8.510;2022-12-22T03:41:19;17.10;;;9.43;;
26277;SDS011;14000;52.056;8.510;2022-12-22T03:44:03;12.10;;;7.00;;
26277;SDS011;14000;52.056;8.510;2022-12-22T03:46:47;11.77;;;6.60;;
26277;SDS011;14000;52.056;8.510;2022-12-22T03:49:12;12.57;;;7.43;;
26277;SDS011;14000;52.056;8.510;2022-12-22T03:51:45;17.70;;;9.53;;
26277;SDS011;14000;52.056;8.510;2022-12-22T03:54:13;11.43;;;6.40;;
26277;SDS011;14000;52.056;8.510;2022-12-22T03:56:40;13.30;;;8.10;;
26277;SDS011;14000;52.056;8.510;2022-12-22T03:59:06;12.83;;;6.83;;
26277;SDS011;14000;52.056;8.510;2022-12-22T04:01:32;10.63;;;6.53;;
26277;SDS011;14000;52.056;8.510;2022-12-22T04:04:02;11.90;;;6.90;;
26277;SDS011;14000;52.056;8.510;2022-12-22T04:06:27;17.73;;;9.27;;
26277;SDS011;14000;52.056;8.510;2022-12-22T04:08:53;11.20;;;6.57;;
26277;SDS011;14000;52.056;8.510;2022-12-22T04:11:19;11.47;;;6.93;;
26277;SDS011;14000;52.056;8.510;2022-12-22T04:14:03;11.10;;;6.40;;
26277;SDS011;14000;52.056;8.510;2022-12-22T04:16:29;16.27;;;9.60;;
26277;SDS011;14000;52.056;8.510;2022-12-22T04:18:55;11.80;;;6.60;;
26277;SDS011;14000;52.056;8.510;2022-12-22T04:21:21;16.03;;;8.70;;
26277;SDS011;14000;52.056;8.510;2022-12-22T04:23:46;13.93;;;6.83;;
26277;SDS011;14000;52.056;8.510;2022-12-22T04:26:15;14.33;;;7.60;;
26277;SDS011;14000;52.056;8.510;2022-12-22T04:28:44;12.93;;;7.43;;
26277;SDS011;14000;52.056;8.510;2022-12-22T04:31:10;12.10;;;6.60;;
26277;SDS011;14000;52.056;8.510;2022-12-22T04:33:36;11.60;;;6.47;;
26277;SDS011;14000;52.056;8.510;2022-12-22T04:36:01;17.90;;;10.90;;
26277;SDS011;14000;52.056;8.510;2022-12-22T04:38:27;13.90;;;9.30;;
26277;SDS011;14000;52.056;8.510;2022-12-22T04:40:52;14.33;;;8.90;;
26277;SDS011;14000;52.056;8.510;2022-12-22T04:43:19;13.43;;;8.67;;
26277;SDS011;14000;52.056;8.510;2022-12-22T04:45:44;14.17;;;8.63;;
26277;SDS011;14000;52.056;8.510;2022-12-22T04:48:10;15.40;;;9.40;;
26277;SDS011;14000;52.056;8.510;2022-12-22T04:50:35;16.83;;;7.07;;
26277;SDS011;14000;52.056;8.510;2022-12-22T04:53:01;13.27;;;7.47;;
26277;SDS011;14000;52.056;8.510;2022-12-22T04:55:27;13.83;;;7.27;;
26277;SDS011;14000;52.056;8.510;2022-12-22T04:57:52;10.83;;;6.70;;
26277;SDS011;14000;52.056;8.510;2022-12-22T05:00:18;12.37;;;7.30;;
26277;SDS011;14000;52.056;8.510;2022-12-22T05:02:44;10.70;;;6.40;;
26277;SDS011;14000;52.056;8.510;2022-12-22T05:05:09;30.03;;;15.20;;
26277;SDS011;14000;52.056;8.510;2022-12-22T05:07:35;10.87;;;6.93;;
26277;SDS011;14000;52.056;8.510;2022-12-22T05:10:02;16.43;;;9.57;;
26277;SDS011;14000;52.056;8.510;2022-12-22T05:12:29;10.83;;;6.57;;
26277;SDS011;14000;52.056;8.510;2022-12-22T05:15:13;11.00;;;6.37;;
26277;SDS011;14000;52.056;8.510;2022-12-22T05:17:38;12.70;;;7.40;;
26277;SDS011;14000;52.056;8.510;2022-12-22T05:20:04;14.07;;;7.57;;
26277;SDS011;14000;52.056;8.510;2022-12-22T05:22:30;12.33;;;6.60;;
26277;SDS011;14000;52.056;8.510;2022-12-22T05:24:56;11.93;;;6.50;;
26277;SDS011;14000;52.056;8.510;2022-12-22T05:27:21;11.87;;;7.23;;
26277;SDS011;14000;52.056;8.510;2022-12-22T05:29:47;11.23;;;6.47;;
26277;SDS011;14000;52.056;8.510;2022-12-22T05:32:13;24.93;;;12.97;;
26277;SDS011;14000;52.056;8.510;2022-12-22T05:34:38;13.80;;;7.97;;
26277;SDS011;14000;52.056;8.510;2022-12-22T05:37:04;12.10;;;6.80;;
26277;SDS011;14000;52.056;8.510;2022-12-22T05:39:29;11.80;;;7.13;;
26277;SDS011;14000;52.056;8.510;2022-12-22T05:41:55;11.57;;;7.40;;
26277;SDS011;14000;52.056;8.510;2022-12-22T05:44:20;11.50;;;7.13;;
26277;SDS011;14000;52.056;8.510;2022-12-22T05:46:48;21.07;;;11.90;;
26277;SDS011;14000;52.056;8.510;2022-12-22T05:49:15;26.50;;;13.20;;
26277;SDS011;14000;52.056;8.510;2022-12-22T05:51:40;13.87;;;8.10;;
26277;SDS011;14000;52.056;8.510;2022-12-22T05:54:06;26.20;;;13.10;;
26277;SDS011;14000;52.056;8.510;2022-12-22T05:56:31;14.77;;;9.40;;
26277;SDS011;14000;52.056;8.510;2022-12-22T05:58:57;14.57;;;9.77;;
26277;SDS011;14000;52.056;8.510;2022-12-22T06:01:22;16.07;;;9.77;;
26277;SDS011;14000;52.056;8.510;2022-12-22T06:03:48;17.20;;;10.93;;
26277;SDS011;14000;52.056;8.510;2022-12-22T06:06:13;28.07;;;14.77;;
26277;SDS011;14000;52.056;8.510;2022-12-22T06:08:39;34.87;;;17.40;;
26277;SDS011;14000;52.056;8.510;2022-12-22T06:11:05;37.13;;;17.67;;
26277;SDS011;14000;52.056;8.510;2022-12-22T06:13:30;23.63;;;14.10;;
26277;SDS011;14000;52.056;8.510;2022-12-22T06:15:56;18.20;;;11.97;;
26277;SDS011;14000;52.056;8.510;2022-12-22T06:18:21;20.20;;;12.50;;
26277;SDS011;14000;52.056;8.510;2022-12-22T06:20:49;18.27;;;12.07;;
26277;SDS011;14000;52.056;8.510;2022-12-22T06:23:16;16.83;;;11.17;;
26277;SDS011;14000;52.056;8.510;2022-12-22T06:25:41;16.10;;;10.40;;
26277;SDS011;14000;52.056;8.510;2022-12-22T06:28:07;16.57;;;11.17;;
26277;SDS011;14000;52.056;8.510;2022-12-22T06:30:32;18.70;;;11.77;;
26277;SDS011;14000;52.056;8.510;2022-12-22T06:32:58;18.57;;;12.27;;
26277;SDS011;14000;52.056;8.510;2022-12-22T06:35:24;17.73;;;11.27;;
26277;SDS011;14000;52.056;8.510;2022-12-22T06:37:50;20.77;;;12.90;;
26277;SDS011;14000;52.056;8.510;2022-12-22T06:40:15;16.87;;;11.13;;
26277;SDS011;14000;52.056;8.510;2022-12-22T06:42:41;18.80;;;11.60;;
26277;SDS011;14000;52.056;8.510;2022-12-22T06:45:25;29.63;;;15.27;;
26277;SDS011;14000;52.056;8.510;2022-12-22T06:47:50;33.90;;;16.13;;
26277;SDS011;14000;52.056;8.510;2022-12-22T06:50:16;43.37;;;18.50;;
26277;SDS011;14000;52.056;8.510;2022-12-22T06:52:42;25.63;;;14.30;;
26277;SDS011;14000;52.056;8.510;2022-12-22T06:55:08;38.97;;;17.73;;
26277;SDS011;14000;52.056;8.510;2022-12-22T06:57:35;21.43;;;13.60;;
26277;SDS011;14000;52.056;8.510;2022-12-22T07:00:00;19.67;;;11.93;;
26277;SDS011;14000;52.056;8.510;2022-12-22T07:02:26;19.17;;;12.63;;
26277;SDS011;14000;52.056;8.510;2022-12-22T07:04:52;57.10;;;22.17;;
26277;SDS011;14000;52.056;8.510;2022-12-22T07:07:17;24.13;;;13.90;;
26277;SDS011;14000;52.056;8.510;2022-12-22T07:09:43;37.83;;;17.87;;
26277;SDS011;14000;52.056;8.510;2022-12-22T07:12:08;29.77;;;16.00;;
26277;SDS011;14000;52.056;8.510;2022-12-22T07:14:34;40.20;;;18.20;;
26277;SDS011;14000;52.056;8.510;2022-12-22T07:16:59;27.33;;;15.73;;
26277;SDS011;14000;52.056;8.510;2022-12-22T07:19:25;21.57;;;13.63;;
26277;SDS011;14000;52.056;8.510;2022-12-22T07:21:51;20.87;;;13.00;;
26277;SDS011;14000;52.056;8.510;2022-12-22T07:24:16;21.40;;;12.97;;
26277;SDS011;14000;52.056;8.510;2022-12-22T07:26:47;20.93;;;13.13;;
26277;SDS011;14000;52.056;8.510;2022-12-22T07:29:13;20.60;;;12.53;;
26277;SDS011;14000;52.056;8.510;2022-12-22T07:31:38;26.43;;;15.53;;
26277;SDS011;14000;52.056;8.510;2022-12-22T07:34:04;35.30;;;16.90;;
26277;SDS011;14000;52.056;8.510;2022-12-22T07:36:29;23.83;;;14.30;;
26277;SDS011;14000;52.056;8.510;2022-12-22T07:38:55;23.13;;;13.70;;
26277;SDS011;14000;52.056;8.510;2022-12-22T07:41:21;21.13;;;12.93;;
26277;SDS011;14000;52.056;8.510;2022-12-22T07:44:05;20.63;;;12.87;;
26277;SDS011;14000;52.056;8.510;2022-12-22T07:46:33;26.10;;;14.63;;
26277;SDS011;14000;52.056;8.510;2022-12-22T07:49:01;21.73;;;13.20;;
26277;SDS011;14000;52.056;8.510;2022-12-22T07:51:46;20.23;;;12.33;;
26277;SDS011;14000;52.056;8.510;2022-12-22T07:54:13;22.10;;;13.20;;
26277;SDS011;14000;52.056;8.510;2022-12-22T07:56:39;22.00;;;13.27;;
26277;SDS011;14000;52.056;8.510;2022-12-22T07:59:05;20.83;;;13.17;;
26277;SDS011;14000;52.056;8.510;2022-12-22T08:01:31;20.83;;;12.43;;
26277;SDS011;14000;52.056;8.510;2022-12-22T08:03:57;24.80;;;15.20;;
26277;SDS011;14000;52.056;8.510;2022-12-22T08:06:23;26.40;;;17.50;;
26277;SDS011;14000;52.056;8.510;2022-12-22T08:08:49;26.67;;;17.30;;
26277;SDS011;14000;52.056;8.510;2022-12-22T08:11:15;31.67;;;16.80;;
26277;SDS011;14000;52.056;8.510;2022-12-22T08:13:41;41.33;;;19.07;;
26277;SDS011;14000;52.056;8.510;2022-12-22T08:16:08;42.50;;;19.37;;
26277;SDS011;14000;52.056;8.510;2022-12-22T08:18:35;46.13;;;19.87;;
26277;SDS011;14000;52.056;8.510;2022-12-22T08:21:02;23.30;;;14.60;;
26277;SDS011;14000;52.056;8.510;2022-12-22T08:23:30;23.07;;;13.27;;
26277;SDS011;14000;52.056;8.510;2022-12-22T08:26:18;21.33;;;12.97;;
26277;SDS011;14000;52.056;8.510;2022-12-22T08:29:02;22.40;;;12.80;;
26277;SDS011;14000;52.056;8.510;2022-12-22T08:31:32;20.50;;;12.63;;
26277;SDS011;14000;52.056;8.510;2022-12-22T08:33:58;18.83;;;11.77;;
26277;SDS011;14000;52.056;8.510;2022-12-22T08:36:28;20.60;;;12.10;;
26277;SDS011;14000;52.056;8.510;2022-12-22T08:38:58;28.77;;;13.70;;
26277;SDS011;14000;52.056;8.510;2022-12-22T08:41:25;37.00;;;15.60;;
26277;SDS011;14000;52.056;8.510;2022-12-22T08:44:11;21.50;;;12.33;;
26277;SDS011;14000;52.056;8.510;2022-12-22T08:46:36;18.23;;;11.23;;
26277;SDS011;14000;52.056;8.510;2022-12-22T08:49:02;20.10;;;11.93;;
26277;SDS011;14000;52.056;8.510;2022-12-22T08:51:27;24.40;;;14.77;;
26277;SDS011;14000;52.056;8.510;2022-12-22T08:53:53;20.90;;;12.43;;
26277;SDS011;14000;52.056;8.510;2022-12-22T08:56:19;19.07;;;11.57;;
26277;SDS011;14000;52.056;8.510;2022-12-22T08:58:44;19.00;;;11.03;;
26277;SDS011;14000;52.056;8.510;2022-12-22T09:01:17;43.67;;;16.13;;
26277;SDS011;14000;52.056;8.510;2022-12-22T09:03:47;22.93;;;13.10;;
26277;SDS011;14000;52.056;8.510;2022-12-22T09:06:14;20.17;;;12.07;;
26277;SDS011;14000;52.056;8.510;2022-12-22T09:08:39;19.93;;;11.50;;
26277;SDS011;14000;52.056;8.510;2022-12-22T09:11:05;18.07;;;10.73;;
26277;SDS011;14000;52.056;8.510;2022-12-22T09:13:30;17.97;;;9.83;;
26277;SDS011;14000;52.056;8.510;2022-12-22T09:15:56;18.40;;;10.37;;
26277;SDS011;14000;52.056;8.510;2022-12-22T09:18:22;20.27;;;11.97;;
26277;SDS011;14000;52.056;8.510;2022-12-22T09:20:52;20.10;;;12.03;;
26277;SDS011;14000;52.056;8.510;2022-12-22T09:23:19;19.30;;;11.17;;
26277;SDS011;14000;52.056;8.510;2022-12-22T09:25:44;20.33;;;11.90;;
26277;SDS011;14000;52.056;8.510;2022-12-22T09:28:10;19.57;;;11.20;;
26277;SDS011;14000;52.056;8.510;2022-12-22T09:30:36;20.57;;;12.03;;
26277;SDS011;14000;52.056;8.510;2022-12-22T09:33:02;20.00;;;11.93;;
26277;SDS011;14000;52.056;8.510;2022-12-22T09:35:27;22.27;;;12.37;;
26277;SDS011;14000;52.056;8.510;2022-12-22T09:37:53;20.17;;;11.87;;
26277;SDS011;14000;52.056;8.510;2022-12-22T09:40:18;22.67;;;12.73;;
26277;SDS011;14000;52.056;8.510;2022-12-22T09:42:46;22.17;;;12.43;;
26277;SDS011;14000;52.056;8.510;2022-12-22T09:45:12;21.03;;;11.47;;
26277;SDS011;14000;52.056;8.510;2022-12-22T09:47:44;25.60;;;12.83;;
26277;SDS011;14000;52.056;8.510;2022-12-22T09:50:17;21.07;;;11.97;;
26277;SDS011;14000;52.056;8.510;2022-12-22T09:52:48;23.20;;;13.73;;
26277;SDS011;14000;52.056;8.510;2022-12-22T09:57:54;23.00;;;12.33;;
26277;SDS011;14000;52.056;8.510;2022-12-22T10:00:21;23.13;;;11.53;;
26277;SDS011;14000;52.056;8.510;2022-12-22T10:05:37;22.80;;;11.23;;
26277;SDS011;14000;52.056;8.510;2022-12-22T10:08:10;21.57;;;10.90;;
26277;SDS011;14000;52.056;8.510;2022-12-22T10:10:39;23.60;;;11.43;;
26277;SDS011;14000;52.056;8.510;2022-12-22T10:13:05;35.53;;;13.07;;
26277;SDS011;14000;52.056;8.510;2022-12-22T10:15:38;30.10;;;13.40;;
26277;SDS011;14000;52.056;8.510;2022-12-22T10:18:09;23.90;;;11.57;;
26277;SDS011;14000;52.056;8.510;2022-12-22T10:20:46;23.60;;;11.93;;
26277;SDS011;14000;52.056;8.510;2022-12-22T10:23:30;25.47;;;12.07;;
26277;SDS011;14000;52.056;8.510;2022-12-22T10:26:03;26.50;;;11.70;;
26277;SDS011;14000;52.056;8.510;2022-12-22T10:28:42;25.77;;;11.83;;
26277;SDS011;14000;52.056;8.510;2022-12-22T10:31:24;28.23;;;12.70;;
26277;SDS011;14000;52.056;8.510;2022-12-22T10:33:52;22.20;;;11.80;;
26277;SDS011;14000;52.056;8.510;2022-12-22T10:36:29;20.60;;;10.00;;
26277;SDS011;14000;52.056;8.510;2022-12-22T10:39:03;20.43;;;10.20;;
26277;SDS011;14000;52.056;8.510;2022-12-22T10:41:31;22.17;;;10.40;;
26277;SDS011;14000;52.056;8.510;2022-12-22T10:44:21;19.67;;;9.93;;
26277;SDS011;14000;52.056;8.510;2022-12-22T10:46:57;21.00;;;10.20;;
26277;SDS011;14000;52.056;8.510;2022-12-22T10:49:44;19.77;;;10.43;;
26277;SDS011;14000;52.056;8.510;2022-12-22T10:52:17;20.33;;;9.97;;
26277;SDS011;14000;52.056;8.510;2022-12-22T10:55:12;22.77;;;10.37;;
26277;SDS011;14000;52.056;8.510;2022-12-22T10:58:05;21.50;;;10.53;;
26277;SDS011;14000;52.056;8.510;2022-12-22T11:00:42;25.50;;;11.60;;
26277;SDS011;14000;52.056;8.510;2022-12-22T11:03:09;25.07;;;12.00;;
26277;SDS011;14000;52.056;8.510;2022-12-22T11:05:38;21.27;;;11.10;;
26277;SDS011;14000;52.056;8.510;2022-12-22T11:08:15;25.27;;;12.43;;
26277;SDS011;14000;52.056;8.510;2022-12-22T11:13:37;30.97;;;14.50;;
26277;SDS011;14000;52.056;8.510;2022-12-22T11:21:45;34.23;;;15.13;;
26277;SDS011;14000;52.056;8.510;2022-12-22T11:24:21;33.77;;;15.53;;
26277;SDS011;14000;52.056;8.510;2022-12-22T11:27:00;33.17;;;15.10;;
26277;SDS011;14000;52.056;8.510;2022-12-22T11:35:12;29.80;;;15.23;;
26277;SDS011;14000;52.056;8.510;2022-12-22T11:37:53;31.53;;;15.50;;
26277;SDS011;14000;52.056;8.510;2022-12-22T11:40:33;32.80;;;15.40;;
26277;SDS011;14000;52.056;8.510;2022-12-22T11:43:14;29.47;;;15.40;;
26277;SDS011;14000;52.056;8.510;2022-12-22T11:45:46;31.03;;;14.83;;
26277;SDS011;14000;52.056;8.510;2022-12-22T11:57:01;24.50;;;14.17;;
26277;SDS011;14000;52.056;8.510;2022-12-22T11:59:40;23.13;;;13.43;;
26277;SDS011;14000;52.056;8.510;2022-12-22T12:07:57;28.47;;;13.93;;
26277;SDS011;14000;52.056;8.510;2022-12-22T12:10:39;28.87;;;15.57;;
26277;SDS011;14000;52.056;8.510;2022-12-22T12:16:12;28.90;;;15.63;;
26277;SDS011;14000;52.056;8.510;2022-12-22T12:21:41;29.70;;;13.63;;
26277;SDS011;14000;52.056;8.510;2022-12-22T12:29:45;31.23;;;15.13;;
26277;SDS011;14000;52.056;8.510;2022-12-22T12:32:35;27.40;;;14.30;;
26277;SDS011;14000;52.056;8.510;2022-12-22T12:43:37;29.83;;;14.20;;
26277;SDS011;14000;52.056;8.510;2022-12-22T12:52:03;30.10;;;14.57;;
26277;SDS011;14000;52.056;8.510;2022-12-22T12:57:09;28.23;;;14.17;;
26277;SDS011;14000;52.056;8.510;2022-12-22T12:59:46;29.73;;;15.03;;
26277;SDS011;14000;52.056;8.510;2022-12-22T13:10:28;28.33;;;13.63;;
26277;SDS011;14000;52.056;8.510;2022-12-22T13:12:54;28.83;;;14.90;;
26277;SDS011;14000;52.056;8.510;2022-12-22T13:15:32;24.10;;;12.50;;
26277;SDS011;14000;52.056;8.510;2022-12-22T13:17:59;25.90;;;13.10;;
26277;SDS011;14000;52.056;8.510;2022-12-22T13:20:33;23.83;;;13.37;;
26277;SDS011;14000;52.056;8.510;2022-12-22T13:23:01;31.17;;;14.87;;
26277;SDS011;14000;52.056;8.510;2022-12-22T13:25:55;27.77;;;14.53;;
26277;SDS011;14000;52.056;8.510;2022-12-22T13:28:25;25.93;;;13.63;;
26277;SDS011;14000;52.056;8.510;2022-12-22T13:30:52;27.57;;;14.27;;
26277;SDS011;14000;52.056;8.510;2022-12-22T13:33:23;26.90;;;14.40;;
26277;SDS011;14000;52.056;8.510;2022-12-22T13:35:53;27.97;;;14.80;;
26277;SDS011;14000;52.056;8.510;2022-12-22T13:38:39;23.90;;;13.67;;
26277;SDS011;14000;52.056;8.510;2022-12-22T13:41:18;27.00;;;12.90;;
26277;SDS011;14000;52.056;8.510;2022-12-22T13:43:51;24.47;;;13.30;;
26277;SDS011;14000;52.056;8.510;2022-12-22T13:46:20;23.43;;;13.07;;
26277;SDS011;14000;52.056;8.510;2022-12-22T13:48:48;25.87;;;13.87;;
26277;SDS011;14000;52.056;8.510;2022-12-22T13:51:21;24.40;;;13.10;;
26277;SDS011;14000;52.056;8.510;2022-12-22T13:53:49;25.50;;;12.43;;
26277;SDS011;14000;52.056;8.510;2022-12-22T13:56:21;23.87;;;12.40;;
26277;SDS011;14000;52.056;8.510;2022-12-22T13:58:50;23.20;;;13.17;;
26277;SDS011;14000;52.056;8.510;2022-12-22T14:01:27;25.57;;;12.70;;
26277;SDS011;14000;52.056;8.510;2022-12-22T14:03:54;25.40;;;13.20;;
26277;SDS011;14000;52.056;8.510;2022-12-22T14:06:27;24.07;;;12.40;;
26277;SDS011;14000;52.056;8.510;2022-12-22T14:11:55;27.50;;;14.57;;
26277;SDS011;14000;52.056;8.510;2022-12-22T14:14:36;25.33;;;13.40;;
26277;SDS011;14000;52.056;8.510;2022-12-22T14:17:03;25.33;;;12.73;;
26277;SDS011;14000;52.056;8.510;2022-12-22T14:19:40;24.73;;;12.20;;
26277;SDS011;14000;52.056;8.510;2022-12-22T14:22:10;25.30;;;13.30;;
26277;SDS011;14000;52.056;8.510;2022-12-22T14:24:43;29.50;;;14.47;;
26277;SDS011;14000;52.056;8.510;2022-12-22T14:27:55;28.70;;;15.43;;
26277;SDS011;14000;52.056;8.510;2022-12-22T14:30:06;25.47;;;14.57;;
26277;SDS011;14000;52.056;8.510;2022-12-22T14:33:13;26.40;;;14.90;;
26277;SDS011;14000;52.056;8.510;2022-12-22T14:35:51;27.40;;;15.13;;
26277;SDS011;14000;52.056;8.510;2022-12-22T14:38:48;37.33;;;20.70;;
26277;SDS011;14000;52.056;8.510;2022-12-22T14:41:22;34.43;;;19.07;;
26277;SDS011;14000;52.056;8.510;2022-12-22T14:44:27;29.50;;;16.30;;
26277;SDS011;14000;52.056;8.510;2022-12-22T14:49:29;26.20;;;15.67;;
26277;SDS011;14000;52.056;8.510;2022-12-22T14:51:55;29.83;;;16.53;;
26277;SDS011;14000;52.056;8.510;2022-12-22T14:54:29;28.80;;;15.07;;
26277;SDS011;14000;52.056;8.510;2022-12-22T14:57:01;29.67;;;16.23;;
26277;SDS011;14000;52.056;8.510;2022-12-22T14:59:34;32.20;;;18.90;;
26277;SDS011;14000;52.056;8.510;2022-12-22T15:02:01;35.13;;;18.90;;
26277;SDS011;14000;52.056;8.510;2022-12-22T15:04:43;27.77;;;14.80;;
26277;SDS011;14000;52.056;8.510;2022-12-22T15:07:15;28.43;;;15.67;;
26277;SDS011;14000;52.056;8.510;2022-12-22T15:09:42;29.70;;;15.60;;
26277;SDS011;14000;52.056;8.510;2022-12-22T15:12:12;26.83;;;14.20;;
26277;SDS011;14000;52.056;8.510;2022-12-22T15:14:41;27.83;;;14.30;;
26277;SDS011;14000;52.056;8.510;2022-12-22T15:17:16;28.67;;;14.57;;
26277;SDS011;14000;52.056;8.510;2022-12-22T15:19:47;29.57;;;15.90;;
26277;SDS011;14000;52.056;8.510;2022-12-22T15:22:13;31.33;;;15.40;;
26277;SDS011;14000;52.056;8.510;2022-12-22T15:24:39;28.50;;;14.80;;
26277;SDS011;14000;52.056;8.510;2022-12-22T15:27:04;30.30;;;15.23;;
26277;SDS011;14000;52.056;8.510;2022-12-22T15:29:30;31.17;;;14.80;;
26277;SDS011;14000;52.056;8.510;2022-12-22T15:31:55;28.43;;;15.00;;
26277;SDS011;14000;52.056;8.510;2022-12-22T15:34:22;33.37;;;14.23;;
26277;SDS011;14000;52.056;8.510;2022-12-22T15:36:51;28.43;;;13.93;;
26277;SDS011;14000;52.056;8.510;2022-12-22T15:39:18;30.40;;;14.60;;
26277;SDS011;14000;52.056;8.510;2022-12-22T15:41:44;35.97;;;15.23;;
26277;SDS011;14000;52.056;8.510;2022-12-22T15:44:11;28.53;;;14.33;;
26277;SDS011;14000;52.056;8.510;2022-12-22T15:46:37;32.13;;;15.17;;
26277;SDS011;14000;52.056;8.510;2022-12-22T15:49:05;31.57;;;14.40;;
26277;SDS011;14000;52.056;8.510;2022-12-22T15:51:37;30.40;;;14.63;;
26277;SDS011;14000;52.056;8.510;2022-12-22T15:54:02;33.43;;;16.20;;
26277;SDS011;14000;52.056;8.510;2022-12-22T15:56:29;31.33;;;15.27;;
26277;SDS011;14000;52.056;8.510;2022-12-22T15:58:57;38.00;;;15.07;;
26277;SDS011;14000;52.056;8.510;2022-12-22T16:01:24;34.37;;;14.17;;
26277;SDS011;14000;52.056;8.510;2022-12-22T16:03:49;32.90;;;15.27;;
26277;SDS011;14000;52.056;8.510;2022-12-22T16:06:16;27.53;;;14.20;;
26277;SDS011;14000;52.056;8.510;2022-12-22T16:08:50;36.70;;;15.97;;
26277;SDS011;14000;52.056;8.510;2022-12-22T16:11:17;32.10;;;15.90;;
26277;SDS011;14000;52.056;8.510;2022-12-22T16:13:43;32.93;;;15.30;;
26277;SDS011;14000;52.056;8.510;2022-12-22T16:16:10;33.20;;;15.60;;
26277;SDS011;14000;52.056;8.510;2022-12-22T16:18:35;34.70;;;15.60;;
26277;SDS011;14000;52.056;8.510;2022-12-22T16:21:04;31.23;;;15.07;;
26277;SDS011;14000;52.056;8.510;2022-12-22T16:23:31;28.30;;;14.80;;
26277;SDS011;14000;52.056;8.510;2022-12-22T16:25:58;32.77;;;16.83;;
26277;SDS011;14000;52.056;8.510;2022-12-22T16:28:25;32.47;;;17.10;;
26277;SDS011;14000;52.056;8.510;2022-12-22T16:30:51;36.87;;;18.40;;
26277;SDS011;14000;52.056;8.510;2022-12-22T16:33:17;37.13;;;18.27;;